Aktuální počasí v Česku a ve světě - METAR

Seznam meteostanic umístěných nejčasteji na letišti v ČR a ve světě

Vyhledat místa podle abecedy:
A B C D E F G H I J K L M N O P Q R S T U V W X Y Z

Filtrovat:

ID stanice:
a/nebo
Název místa (fulltext):
 
Místo (ID)Naposledy načteno 
Edinburgh (EGPH) 16.07.2020 13:50 UTC Zobrazit METAR
EGPH 161350Z 25014KT 9999 SCT041 21/15 Q1017
Eindhoven (EHEH) 16.07.2020 13:55 UTC Zobrazit METAR
EHEH 161355Z AUTO 28006KT 230V350 9999 FEW051 OVC056 17/15 Q1017 BLU TEMPO 4500 -DZRA FEW007 SCT009 BKN012
Entebbe (HUEN) 09.07.2020 16:00 UTC Zobrazit METAR
HUEN 091600Z 27010KT 9999 FEW021 24/17 Q1014
Esbjerg (EKEB) 16.07.2020 13:50 UTC Zobrazit METAR
EKEB 161350Z AUTO 25010KT 9999 FEW026/// FEW078/// 19/13 Q1017
Reklama

Počasí na Váš email

Emaily jsou bez reklamy a bez spamu



Odhlásit newsletter



❤️ Podpořte nás

Napište o nás recenzi na Google
Ohodnoťte nás na Firmy.cz

Pošlete nám finanční podporu - firma nedostala žádné dotace ani podporu z Coronaviru, zato letos platíme vyšší daně.
Další české internetové stránky (nejen) o počasí najdete v katalogu TOPlist - weby o počasí nebo vyhledejte na internetu, co jste tu na 🌞 Slunečnu ⛅ zatím nenašli:
⬆️ Posunout nahoru ⬆️
Reklama